Terminal Aerodrome Forecast
Issued by NWS Norman, OK

Home | Current Version | Previous Version | Text Only | Print | Product List | Glossary On
Versions: 1 2 3 4 5 6 7 8 9 10 11 12 13 14 15 16 17 18 19 20 21 22 23 24 25 26
000
FTUS44 KOUN 010532
TAFOKC
TAF
KOKC 010532Z 0106/0206 19008KT 3SM BR OVC003
      TEMPO 0106/0109 1SM -RA BR VV002
     FM010900 23007KT 3SM BR OVC005
     FM011200 31011KT 5SM BR OVC008
     FM011400 33018G25KT P6SM BKN015
     FM011700 33023G32KT P6SM BKN025
     FM012200 34018G27KT P6SM SCT030
     FM020300 35014KT P6SM SKC=

USA.gov is the U.S. government's official web portal to all federal, state and local government web resources and services.